Boise City, Oklahoma
Current Conditions -  °F | °C
As of 8:55 AM on Thursday 23 Oct 2014 (Local Time) from KCAO Reporting Station
Clear Clear  
Wind Chill: 58°   Ceiling: Unl
Heat Index: 58°   Visibility: 10mi
Dew Point: 43°   Wind: 9mph
Humidity: 58%   Direction: 310°NW
Pressure: 30.15"   Gusts: NA
Location:  36.73°N, 102.51°W
Report Text: KCAO 231355Z AUTO 31008KT 10SM CLR 14/06 A3015 RMK AO2 SLP168 T01440061
Loading
Personal Weather Stations






























Interactive Weather Map
Tropical Storm Tracking
New forecast layout! Learn more

10-Day Weather Forecast

Advertisements
Track Severe Weather on mobile